Time;durP1;ratioP1;P1;durP2;ratioP2;P2;SDS_P1;SDS_P2;PMS_P1;PMS_P2;Temp;Humidity;BMP_temperature;BMP_pressure;BME280_temperature;BME280_humidity;BME280_pressure;Samples;Min_cycle;Max_cycle;Signal;HPM_P1;HPM_P2
2023/09/10 00:04:39;;;;;;;8.93;8.03;;;;;;;;;;5056889;28;20246;-73
2023/09/10 00:07:07;;;;;;;12.20;9.37;;;;;;;;;;5055824;28;20186;-73
2023/09/10 00:09:34;;;;;;;11.43;9.17;;;;;;;;;;5056893;28;20273;-73
2023/09/10 00:12:01;;;;;;;8.30;7.13;;;;;;;;;;5055980;28;20191;-73
2023/09/10 00:15:04;;;;;;;10.90;8.93;;;;;;;;;;5041514;28;20642;-73
2023/09/10 00:17:31;;;;;;;8.37;7.10;;;;;;;;;;5039444;28;20617;-73
2023/09/10 00:19:57;;;;;;;9.53;7.30;;;;;;;;;;5056729;28;20675;-73
2023/09/10 00:22:24;;;;;;;9.73;7.83;;;;;;;;;;5030680;28;20248;-73
2023/09/10 00:24:51;;;;;;;8.13;7.33;;;;;;;;;;5038729;28;20297;-73
2023/09/10 00:27:17;;;;;;;7.93;7.00;;;;;;;;;;5038696;28;20191;-73
2023/09/10 00:33:44;;;;;;;7.50;6.53;;;;;;;;;;5051109;28;20151;-73
2023/09/10 00:36:11;;;;;;;11.93;7.37;;;;;;;;;;5038747;28;20191;-73
2023/09/10 00:38:38;;;;;;;7.97;7.17;;;;;;;;;;5022242;28;20297;-73
2023/09/10 00:45:05;;;;;;;9.93;7.20;;;;;;;;;;5056061;28;20177;-73
2023/09/10 00:51:33;;;;;;;10.03;7.47;;;;;;;;;;5056008;28;20181;-73
2023/09/10 00:53:59;;;;;;;12.10;8.93;;;;;;;;;;5038083;28;20195;-73
2023/09/10 00:56:26;;;;;;;10.73;8.63;;;;;;;;;;5054842;28;20171;-73
2023/09/10 00:58:53;;;;;;;13.97;10.60;;;;;;;;;;5054938;28;20283;-73
2023/09/10 01:01:20;;;;;;;12.63;11.33;;;;;;;;;;5038216;28;20187;-73
2023/09/10 01:03:48;;;;;;;12.47;10.20;;;;;;;;;;5036963;28;20194;-73
2023/09/10 01:50:03;;;;;;;13.77;9.73;;;;;;;;;;5055018;28;20173;-73
2023/09/10 01:52:31;;;;;;;12.37;10.53;;;;;;;;;;5037435;28;20190;-73
2023/09/10 01:54:59;;;;;;;13.83;10.60;;;;;;;;;;5036737;28;20566;-73
2023/09/10 01:57:26;;;;;;;14.03;11.60;;;;;;;;;;5037576;28;20696;-73
2023/09/10 01:59:53;;;;;;;11.30;10.10;;;;;;;;;;5036942;28;20211;-73
2023/09/10 02:06:14;;;;;;;12.53;10.00;;;;;;;;;;5054935;28;20142;-73
2023/09/10 02:08:58;;;;;;;15.43;9.90;;;;;;;;;;5054082;28;20209;-72
2023/09/10 02:11:26;;;;;;;14.17;9.60;;;;;;;;;;5036819;28;20187;-73
2023/09/10 02:13:54;;;;;;;12.07;9.77;;;;;;;;;;5036688;28;20656;-73
2023/09/10 02:20:21;;;;;;;13.53;9.97;;;;;;;;;;5054642;28;20232;-73
2023/09/10 02:22:48;;;;;;;12.50;9.67;;;;;;;;;;5054190;28;20225;-73
2023/09/10 02:25:16;;;;;;;11.57;9.80;;;;;;;;;;5036517;28;20245;-73
2023/09/10 02:27:43;;;;;;;13.73;10.03;;;;;;;;;;5020507;28;20191;-73
2023/09/10 02:34:12;;;;;;;15.50;10.30;;;;;;;;;;5054136;28;20222;-74
2023/09/10 02:36:39;;;;;;;12.27;10.27;;;;;;;;;;5054671;28;20252;-74
2023/09/10 02:39:07;;;;;;;13.73;10.27;;;;;;;;;;5036426;28;20265;-73
2023/09/10 02:41:34;;;;;;;12.70;9.93;;;;;;;;;;5054058;28;20182;-73
2023/09/10 02:44:02;;;;;;;12.70;10.27;;;;;;;;;;5036828;28;20640;-72
2023/09/10 02:50:22;;;;;;;14.23;9.27;;;;;;;;;;5054056;28;20514;-73
2023/09/10 02:56:52;;;;;;;12.73;10.40;;;;;;;;;;5048933;28;20764;-74
2023/09/10 03:03:20;;;;;;;11.17;8.73;;;;;;;;;;5053998;28;20241;-73
2023/09/10 03:05:47;;;;;;;13.47;9.10;;;;;;;;;;5054185;28;20545;-73
2023/09/10 03:08:15;;;;;;;10.67;9.37;;;;;;;;;;5054301;28;20274;-73
2023/09/10 03:10:42;;;;;;;9.93;8.33;;;;;;;;;;5019463;28;20182;-73
2023/09/10 03:13:09;;;;;;;10.57;8.87;;;;;;;;;;5019550;28;20273;-73
2023/09/10 03:19:35;;;;;;;10.50;8.83;;;;;;;;;;5047059;28;20205;-74
2023/09/10 03:22:03;;;;;;;10.50;8.67;;;;;;;;;;5036493;28;20297;-73
2023/09/10 03:24:33;;;;;;;10.13;8.70;;;;;;;;;;5052411;28;20189;-73
2023/09/10 03:30:59;;;;;;;12.50;9.90;;;;;;;;;;5057495;28;20161;-74
2023/09/10 03:33:27;;;;;;;15.37;9.80;;;;;;;;;;5039716;28;20252;-74
2023/09/10 03:39:49;;;;;;;11.57;8.63;;;;;;;;;;5057388;28;20688;-73
2023/09/10 03:46:09;;;;;;;11.60;9.47;;;;;;;;;;5057457;28;20145;-74
2023/09/10 03:48:54;;;;;;;13.33;9.00;;;;;;;;;;5039476;28;20174;-73
2023/09/10 03:55:21;;;;;;;14.07;9.60;;;;;;;;;;5056863;28;20220;-74
2023/09/10 03:57:48;;;;;;;13.80;8.90;;;;;;;;;;5055791;28;20187;-74
2023/09/10 04:00:16;;;;;;;11.90;9.13;;;;;;;;;;5023585;28;20378;-74
2023/09/10 04:02:43;;;;;;;12.43;9.10;;;;;;;;;;5057313;28;20207;-74
2023/09/10 04:05:11;;;;;;;11.17;8.37;;;;;;;;;;5057484;28;20702;-74
2023/09/10 04:07:39;;;;;;;12.27;9.93;;;;;;;;;;5056154;28;20186;-74
2023/09/10 04:14:06;;;;;;;11.47;8.30;;;;;;;;;;5057305;28;20603;-73
2023/09/10 04:16:33;;;;;;;11.90;8.50;;;;;;;;;;5055798;28;20269;-74
2023/09/10 04:19:00;;;;;;;13.83;9.10;;;;;;;;;;5057348;28;20201;-74
2023/09/10 04:21:28;;;;;;;11.57;8.70;;;;;;;;;;5057077;28;20190;-74
2023/09/10 04:23:55;;;;;;;12.07;8.23;;;;;;;;;;5055860;28;20190;-74
2023/09/10 04:26:25;;;;;;;11.80;8.23;;;;;;;;;;5039015;28;20197;-73
2023/09/10 04:32:54;;;;;;;11.30;8.57;;;;;;;;;;5056846;28;20181;-72
2023/09/10 04:35:21;;;;;;;10.80;8.23;;;;;;;;;;5056036;28;20565;-75
2023/09/10 04:42:07;;;;;;;10.77;8.23;;;;;;;;;;5056537;28;20201;-73
2023/09/10 04:44:36;;;;;;;11.07;8.80;;;;;;;;;;5038966;28;20235;-74
2023/09/10 04:51:03;;;;;;;12.83;8.33;;;;;;;;;;5056293;28;20377;-74
2023/09/10 04:57:30;;;;;;;12.90;8.37;;;;;;;;;;5056335;28;20287;-74
2023/09/10 04:59:58;;;;;;;12.73;8.17;;;;;;;;;;5037923;28;20214;-74
2023/09/10 05:02:42;;;;;;;12.67;8.20;;;;;;;;;;5032571;28;20171;-74
2023/09/10 05:09:12;;;;;;;17.73;8.23;;;;;;;;;;5056338;28;20165;-74
2023/09/10 05:11:39;;;;;;;10.63;8.17;;;;;;;;;;5038668;28;20276;-73
2023/09/10 05:18:24;;;;;;;11.83;7.87;;;;;;;;;;5055686;28;20291;-74
2023/09/10 05:24:44;;;;;;;20.10;9.23;;;;;;;;;;5056196;28;20246;-73
2023/09/10 05:27:11;;;;;;;14.70;9.30;;;;;;;;;;5038284;28;20499;-73
2023/09/10 05:33:39;;;;;;;15.77;10.80;;;;;;;;;;5049821;28;20230;-73
2023/09/10 05:36:07;;;;;;;16.60;10.47;;;;;;;;;;5021688;28;20232;-74
2023/09/10 05:38:34;;;;;;;13.50;10.50;;;;;;;;;;5038811;28;20214;-73
2023/09/10 05:41:04;;;;;;;14.53;10.60;;;;;;;;;;5020924;28;20286;-74
2023/09/10 05:43:31;;;;;;;14.00;10.80;;;;;;;;;;5037889;28;20195;-74
2023/09/10 05:49:53;;;;;;;11.53;10.13;;;;;;;;;;5054671;28;20674;-74
2023/09/10 05:52:20;;;;;;;12.87;11.10;;;;;;;;;;5037894;28;20210;-73
2023/09/10 06:02:53;;;;;;;13.23;10.63;;;;;;;;;;5055088;28;20146;-73
2023/09/10 06:05:21;;;;;;;16.07;12.67;;;;;;;;;;5037143;28;20282;-74
2023/09/10 06:07:47;;;;;;;13.63;12.23;;;;;;;;;;5037964;28;20244;-74
2023/09/10 06:10:14;;;;;;;16.23;13.30;;;;;;;;;;5037415;28;20281;-73
2023/09/10 06:16:35;;;;;;;16.07;12.80;;;;;;;;;;5054799;28;20193;-74
2023/09/10 06:19:03;;;;;;;17.00;13.80;;;;;;;;;;5036820;28;20306;-74
2023/09/10 06:21:30;;;;;;;15.20;13.23;;;;;;;;;;5053924;28;20233;-74
2023/09/10 06:27:49;;;;;;;15.60;14.00;;;;;;;;;;5054523;28;20631;-74
2023/09/10 06:30:16;;;;;;;18.83;14.57;;;;;;;;;;5037007;28;20672;-74
2023/09/10 06:33:00;;;;;;;15.70;14.10;;;;;;;;;;5054425;28;20147;-73
2023/09/10 06:35:28;;;;;;;19.13;14.03;;;;;;;;;;5036510;28;20183;-74
2023/09/10 06:37:55;;;;;;;16.77;14.03;;;;;;;;;;5037260;28;20277;-74
2023/09/10 06:40:22;;;;;;;14.97;13.40;;;;;;;;;;5036200;28;20206;-73
2023/09/10 06:42:54;;;;;;;17.97;13.67;;;;;;;;;;5053603;28;20274;-74
2023/09/10 06:45:54;;;;;;;14.90;12.30;;;;;;;;;;5036941;28;20229;-74
2023/09/10 06:48:21;;;;;;;17.37;13.10;;;;;;;;;;5036323;28;20202;-74
2023/09/10 06:54:40;;;;;;;13.87;12.00;;;;;;;;;;5054307;28;20189;-75
2023/09/10 07:05:17;;;;;;;13.77;10.70;;;;;;;;;;5053956;28;20158;-73
2023/09/10 07:11:44;;;;;;;15.77;11.13;;;;;;;;;;5055738;28;20238;-79
2023/09/10 07:14:11;;;;;;;11.60;9.70;;;;;;;;;;5054120;28;20660;-75
2023/09/10 07:20:32;;;;;;;13.20;8.83;;;;;;;;;;5053682;28;20554;-74
2023/09/10 07:22:58;;;;;;;12.03;9.10;;;;;;;;;;5053875;28;20186;-73
2023/09/10 07:25:25;;;;;;;13.70;9.70;;;;;;;;;;5054173;28;20187;-73
2023/09/10 07:27:55;;;;;;;11.27;9.07;;;;;;;;;;5054244;28;20298;-73
2023/09/10 07:34:16;;;;;;;9.07;8.03;;;;;;;;;;5053604;28;20154;-73
2023/09/10 07:36:44;;;;;;;11.23;8.63;;;;;;;;;;5036271;28;20178;-73
2023/09/10 07:39:11;;;;;;;9.97;8.90;;;;;;;;;;5052373;28;20233;-74
2023/09/10 07:41:38;;;;;;;10.23;8.83;;;;;;;;;;5053476;28;20197;-74
2023/09/10 07:44:07;;;;;;;9.60;8.43;;;;;;;;;;5019903;28;20225;-73
2023/09/10 07:46:34;;;;;;;11.13;8.50;;;;;;;;;;5036240;28;20187;-73
2023/09/10 07:53:00;;;;;;;10.07;8.00;;;;;;;;;;5073414;28;20181;-73
2023/09/10 07:59:26;;;;;;;8.37;7.57;;;;;;;;;;5073005;28;20224;-74
2023/09/10 08:01:54;;;;;;;9.03;7.47;;;;;;;;;;5074429;28;20181;-73
2023/09/10 08:04:23;;;;;;;8.33;7.43;;;;;;;;;;5056241;28;20632;-73
2023/09/10 08:06:50;;;;;;;10.40;7.50;;;;;;;;;;5073864;28;20606;-74
2023/09/10 08:09:17;;;;;;;8.17;7.20;;;;;;;;;;5055591;28;20205;-73
2023/09/10 08:11:44;;;;;;;9.30;7.77;;;;;;;;;;5055958;28;20221;-73
2023/09/10 08:14:12;;;;;;;10.13;7.70;;;;;;;;;;5058719;28;20202;-73
2023/09/10 08:16:39;;;;;;;9.60;7.63;;;;;;;;;;5059761;28;20265;-73
2023/09/10 08:19:06;;;;;;;9.93;7.23;;;;;;;;;;5076454;28;20218;-73
2023/09/10 08:21:33;;;;;;;10.37;7.60;;;;;;;;;;5058898;28;20185;-73
2023/09/10 08:24:00;;;;;;;9.10;7.23;;;;;;;;;;5058767;28;20193;-73
2023/09/10 08:26:27;;;;;;;8.07;7.07;;;;;;;;;;5076681;28;20529;-73
2023/09/10 08:28:54;;;;;;;9.63;7.07;;;;;;;;;;5042194;28;20182;-74
2023/09/10 08:31:21;;;;;;;7.97;6.90;;;;;;;;;;5025971;28;20188;-73
2023/09/10 08:33:48;;;;;;;8.23;7.00;;;;;;;;;;5042582;28;20212;-73
2023/09/10 08:36:15;;;;;;;9.53;7.10;;;;;;;;;;5059443;28;20259;-73
2023/09/10 08:38:42;;;;;;;9.53;6.93;;;;;;;;;;5076802;28;20186;-73
2023/09/10 08:41:33;;;;;;;10.00;7.03;;;;;;;;;;5076283;28;20225;-73
2023/09/10 08:44:00;;;;;;;7.73;6.67;;;;;;;;;;5013458;28;20209;-73
2023/09/10 08:46:32;;;;;;;7.83;6.93;;;;;;;;;;5058852;28;20308;-73
2023/09/10 08:49:03;;;;;;;7.27;6.57;;;;;;;;;;5039015;28;20256;-73
2023/09/10 08:51:31;;;;;;;8.40;7.50;;;;;;;;;;5055201;28;20187;-73
2023/09/10 08:53:58;;;;;;;7.73;6.43;;;;;;;;;;5054889;28;20210;-72
2023/09/10 08:56:25;;;;;;;8.97;6.90;;;;;;;;;;5055192;28;20190;-72
2023/09/10 08:58:52;;;;;;;8.53;7.13;;;;;;;;;;5055184;28;20374;-72
2023/09/10 09:01:19;;;;;;;7.60;6.43;;;;;;;;;;5056199;28;20226;-72
2023/09/10 09:03:49;;;;;;;10.30;6.40;;;;;;;;;;5038652;28;20214;-72
2023/09/10 09:06:16;;;;;;;6.93;6.23;;;;;;;;;;5022344;28;20192;-73
2023/09/10 09:08:49;;;;;;;7.80;6.53;;;;;;;;;;5055092;28;20227;-73
2023/09/10 09:11:17;;;;;;;8.93;6.80;;;;;;;;;;5038528;28;20209;-73
2023/09/10 09:13:45;;;;;;;7.40;6.07;;;;;;;;;;5054588;28;20352;-73
2023/09/10 09:16:12;;;;;;;8.33;6.60;;;;;;;;;;5037894;28;20190;-73
2023/09/10 09:18:39;;;;;;;9.17;6.33;;;;;;;;;;5054522;28;20244;-73
2023/09/10 09:21:25;;;;;;;7.67;6.33;;;;;;;;;;5038820;28;20218;-73
2023/09/10 09:24:01;;;;;;;8.40;6.80;;;;;;;;;;5036720;28;20542;-73
2023/09/10 09:26:31;;;;;;;7.20;6.23;;;;;;;;;;5021461;28;20186;-72
2023/09/10 09:29:00;;;;;;;6.93;6.00;;;;;;;;;;5038204;28;20633;-68
2023/09/10 09:31:28;;;;;;;8.67;6.40;;;;;;;;;;5037737;28;20245;-71
2023/09/10 09:33:55;;;;;;;9.57;6.00;;;;;;;;;;5054478;28;20265;-72
2023/09/10 09:36:25;;;;;;;7.80;6.10;;;;;;;;;;5054045;28;20202;-71
2023/09/10 09:38:55;;;;;;;10.63;6.10;;;;;;;;;;5056735;28;20191;-72
2023/09/10 09:41:22;;;;;;;6.30;5.70;;;;;;;;;;5038060;28;20203;-67
2023/09/10 09:43:50;;;;;;;9.07;5.47;;;;;;;;;;5055394;28;20179;-70
2023/09/10 09:46:24;;;;;;;6.50;5.50;;;;;;;;;;5037926;28;20185;-72
2023/09/10 09:48:51;;;;;;;6.17;5.57;;;;;;;;;;5037466;28;20190;-72
2023/09/10 09:51:18;;;;;;;6.17;5.47;;;;;;;;;;5054119;28;20800;-74
2023/09/10 09:53:45;;;;;;;6.07;5.33;;;;;;;;;;5037764;28;20361;-73
2023/09/10 10:00:12;;;;;;;7.23;5.43;;;;;;;;;;5055388;28;20264;-74
2023/09/10 10:02:39;;;;;;;8.37;5.63;;;;;;;;;;5054834;28;20183;-75
2023/09/10 10:05:09;;;;;;;8.43;5.67;;;;;;;;;;5053790;28;20577;-73
2023/09/10 10:07:37;;;;;;;6.53;5.47;;;;;;;;;;5053921;28;20191;-70
2023/09/10 10:10:19;;;;;;;6.47;5.50;;;;;;;;;;5055275;28;20205;-73
2023/09/10 10:12:47;;;;;;;6.70;5.70;;;;;;;;;;5053741;28;20179;-73
2023/09/10 10:19:07;;;;;;;7.07;5.80;;;;;;;;;;5055041;28;20196;-73
2023/09/10 10:25:35;;;;;;;8.27;5.83;;;;;;;;;;5054847;28;20182;-73
2023/09/10 10:28:02;;;;;;;7.03;5.70;;;;;;;;;;5053692;28;20183;-73
2023/09/10 10:34:30;;;;;;;6.53;5.70;;;;;;;;;;5054404;28;20205;-72
2023/09/10 10:37:00;;;;;;;7.67;5.90;;;;;;;;;;5036563;28;20199;-73
2023/09/10 10:43:36;;;;;;;6.87;6.17;;;;;;;;;;5053680;28;20220;-72
2023/09/10 10:46:04;;;;;;;6.97;6.33;;;;;;;;;;5036611;28;20225;-73
2023/09/10 10:48:33;;;;;;;7.60;6.03;;;;;;;;;;5036692;28;20190;-73
2023/09/10 10:51:00;;;;;;;7.10;5.53;;;;;;;;;;5053192;28;20202;-72
2023/09/10 10:53:27;;;;;;;7.23;5.90;;;;;;;;;;5052482;28;20219;-73
2023/09/10 10:55:59;;;;;;;6.67;5.80;;;;;;;;;;5054443;28;20197;-72
2023/09/10 11:02:22;;;;;;;6.43;5.83;;;;;;;;;;5053974;28;20222;-73
2023/09/10 11:08:49;;;;;;;7.47;6.50;;;;;;;;;;5053940;28;20224;-72
2023/09/10 11:11:35;;;;;;;7.30;6.07;;;;;;;;;;5054324;28;20181;-72
2023/09/10 11:14:02;;;;;;;6.43;5.80;;;;;;;;;;5053631;28;20202;-73
2023/09/10 11:16:31;;;;;;;6.40;5.80;;;;;;;;;;5052518;28;20274;-72
2023/09/10 11:18:59;;;;;;;9.17;6.27;;;;;;;;;;5019880;28;20203;-72
2023/09/10 11:21:44;;;;;;;7.97;5.73;;;;;;;;;;5020090;28;20214;-72
2023/09/10 11:24:14;;;;;;;6.30;5.63;;;;;;;;;;5052864;28;20182;-73
2023/09/10 11:26:41;;;;;;;6.90;6.20;;;;;;;;;;5036443;28;20195;-72
2023/09/10 11:29:08;;;;;;;8.13;6.17;;;;;;;;;;5053579;28;20633;-73
2023/09/10 11:31:36;;;;;;;8.07;6.03;;;;;;;;;;5035979;28;20637;-73
2023/09/10 11:37:57;;;;;;;6.33;5.73;;;;;;;;;;5053756;28;20246;-73
2023/09/10 11:40:25;;;;;;;6.30;5.70;;;;;;;;;;5035770;28;20256;-73
2023/09/10 11:46:52;;;;;;;7.13;6.00;;;;;;;;;;5053490;28;20622;-73
2023/09/10 11:49:20;;;;;;;6.50;5.70;;;;;;;;;;5039967;28;20179;-72
2023/09/10 11:51:50;;;;;;;7.67;6.00;;;;;;;;;;5056162;28;20545;-70
2023/09/10 11:58:16;;;;;;;6.80;5.90;;;;;;;;;;5057186;28;20238;-71
2023/09/10 12:00:44;;;;;;;7.67;6.10;;;;;;;;;;5039497;28;20198;-73
2023/09/10 12:03:11;;;;;;;7.20;6.50;;;;;;;;;;5057803;28;20179;-77
2023/09/10 12:09:39;;;;;;;7.67;6.50;;;;;;;;;;5059166;28;20269;-78
2023/09/10 12:12:13;;;;;;;7.87;6.00;;;;;;;;;;5058366;28;20248;-79
2023/09/10 12:18:35;;;;;;;8.20;6.27;;;;;;;;;;5058090;28;20261;-78
2023/09/10 12:21:05;;;;;;;7.37;6.17;;;;;;;;;;5041439;28;20202;-78
2023/09/10 12:23:33;;;;;;;6.83;6.13;;;;;;;;;;5040891;28;20220;-78
2023/09/10 12:26:00;;;;;;;6.53;5.93;;;;;;;;;;5057983;28;20183;-79
2023/09/10 12:28:32;;;;;;;6.80;6.10;;;;;;;;;;5025074;28;20240;-72
2023/09/10 12:30:59;;;;;;;6.63;5.87;;;;;;;;;;5057032;28;20186;-76
2023/09/10 12:33:27;;;;;;;6.57;5.93;;;;;;;;;;5023107;28;20194;-72
2023/09/10 12:35:55;;;;;;;8.73;6.10;;;;;;;;;;5022907;28;20237;-71
2023/09/10 12:38:24;;;;;;;6.53;5.83;;;;;;;;;;5039141;28;20187;-72
2023/09/10 12:40:55;;;;;;;6.03;5.50;;;;;;;;;;5039534;28;20199;-72
2023/09/10 12:43:22;;;;;;;7.53;5.87;;;;;;;;;;5038662;28;20193;-71
2023/09/10 12:45:52;;;;;;;6.83;6.17;;;;;;;;;;5038717;28;20237;-73
2023/09/10 12:48:19;;;;;;;9.13;5.80;;;;;;;;;;5022454;28;20198;-72
2023/09/10 12:50:47;;;;;;;7.20;5.73;;;;;;;;;;5039134;28;20597;-72
2023/09/10 12:53:14;;;;;;;6.80;6.10;;;;;;;;;;5054852;28;20202;-72
2023/09/10 12:55:42;;;;;;;7.70;6.90;;;;;;;;;;5022638;28;20237;-72
2023/09/10 12:58:29;;;;;;;7.10;5.97;;;;;;;;;;5041592;28;20529;-72
2023/09/10 13:00:57;;;;;;;6.70;6.10;;;;;;;;;;5058189;28;20217;-73
2023/09/10 13:03:28;;;;;;;6.87;6.03;;;;;;;;;;5051549;28;20324;-73
2023/09/10 13:06:00;;;;;;;8.33;6.40;;;;;;;;;;5058254;28;20659;-72
2023/09/10 13:08:46;;;;;;;7.97;5.77;;;;;;;;;;5033267;28;20178;-72
2023/09/10 13:11:13;;;;;;;7.23;6.60;;;;;;;;;;5075004;28;20266;-72
2023/09/10 13:13:57;;;;;;;7.57;6.73;;;;;;;;;;5060608;28;20247;-72
2023/09/10 13:16:25;;;;;;;6.77;6.10;;;;;;;;;;5074474;28;20185;-72
2023/09/10 13:18:56;;;;;;;7.20;6.50;;;;;;;;;;5054383;28;20191;-73
2023/09/10 13:21:23;;;;;;;6.67;6.00;;;;;;;;;;5037758;28;20649;-72
2023/09/10 13:23:52;;;;;;;7.00;6.30;;;;;;;;;;5038010;28;20657;-72
2023/09/10 13:26:19;;;;;;;7.20;6.50;;;;;;;;;;5038301;28;20189;-72
2023/09/10 13:28:47;;;;;;;7.60;6.27;;;;;;;;;;5037526;28;20190;-72
2023/09/10 13:31:14;;;;;;;6.93;6.30;;;;;;;;;;5037684;28;20236;-72
2023/09/10 13:33:58;;;;;;;6.90;6.03;;;;;;;;;;5055169;28;20228;-72
2023/09/10 13:36:25;;;;;;;8.83;6.37;;;;;;;;;;5038261;28;20549;-72
2023/09/10 13:38:53;;;;;;;7.43;5.97;;;;;;;;;;5055206;28;20269;-72
2023/09/10 13:45:21;;;;;;;7.07;5.80;;;;;;;;;;5055164;28;20182;-72
2023/09/10 13:47:49;;;;;;;6.97;6.33;;;;;;;;;;5005286;28;20194;-72
2023/09/10 13:50:16;;;;;;;6.57;5.97;;;;;;;;;;5055105;28;20187;-75
2023/09/10 13:52:43;;;;;;;6.80;6.13;;;;;;;;;;5037974;28;20175;-76
2023/09/10 13:55:10;;;;;;;7.03;6.33;;;;;;;;;;5038577;28;20483;-78
2023/09/10 13:57:37;;;;;;;6.37;5.80;;;;;;;;;;5037599;28;20171;-75
2023/09/10 14:00:07;;;;;;;8.87;6.97;;;;;;;;;;5037596;28;20312;-76
2023/09/10 14:02:37;;;;;;;8.03;6.07;;;;;;;;;;5037806;28;20221;-76
2023/09/10 14:05:07;;;;;;;7.47;5.50;;;;;;;;;;5004867;28;20599;-77
2023/09/10 14:07:34;;;;;;;6.63;6.03;;;;;;;;;;5037351;28;20189;-76
2023/09/10 14:10:02;;;;;;;6.70;6.00;;;;;;;;;;5037329;28;20202;-76
2023/09/10 14:12:32;;;;;;;7.70;6.57;;;;;;;;;;5037358;28;20218;-75
2023/09/10 14:14:59;;;;;;;7.60;6.17;;;;;;;;;;5054530;28;20257;-76
2023/09/10 14:17:26;;;;;;;8.40;6.53;;;;;;;;;;5037111;28;20190;-77
2023/09/10 14:19:54;;;;;;;6.97;5.70;;;;;;;;;;5019850;28;20190;-76
2023/09/10 14:22:21;;;;;;;7.10;6.33;;;;;;;;;;5037041;28;20207;-75
2023/09/10 14:28:48;;;;;;;6.97;6.17;;;;;;;;;;5054782;28;20193;-69
2023/09/10 14:35:17;;;;;;;7.13;6.40;;;;;;;;;;5054390;28;20529;-74
2023/09/10 14:41:45;;;;;;;6.43;5.60;;;;;;;;;;5054429;28;20548;-72
2023/09/10 14:44:16;;;;;;;8.30;5.87;;;;;;;;;;5005116;28;20198;-72
2023/09/10 14:47:01;;;;;;;7.03;6.30;;;;;;;;;;5022356;28;20304;-72
2023/09/10 14:53:28;;;;;;;8.20;7.40;;;;;;;;;;5054204;28;20153;-72
2023/09/10 14:59:56;;;;;;;8.87;6.30;;;;;;;;;;5054243;28;20185;-71
2023/09/10 15:02:23;;;;;;;12.80;8.37;;;;;;;;;;5019965;28;20230;-71
2023/09/10 15:08:44;;;;;;;8.47;6.23;;;;;;;;;;5048444;28;20235;-71
2023/09/10 15:15:04;;;;;;;8.73;6.07;;;;;;;;;;5054061;28;20281;-71
2023/09/10 15:17:31;;;;;;;9.57;5.77;;;;;;;;;;5036696;28;20207;-71
2023/09/10 15:19:58;;;;;;;7.23;5.50;;;;;;;;;;5052587;28;20517;-69
2023/09/10 15:26:25;;;;;;;6.07;5.47;;;;;;;;;;5053743;28;20146;-73
2023/09/10 15:32:52;;;;;;;6.53;5.90;;;;;;;;;;5054227;28;20682;-72
2023/09/10 15:35:21;;;;;;;7.03;5.70;;;;;;;;;;5036220;28;20248;-70
2023/09/10 15:37:48;;;;;;;6.50;5.90;;;;;;;;;;5019890;28;20198;-72
2023/09/10 15:40:18;;;;;;;6.90;6.20;;;;;;;;;;5052314;28;20193;-74
2023/09/10 15:46:44;;;;;;;7.67;5.80;;;;;;;;;;5053424;28;20158;-71
2023/09/10 15:49:12;;;;;;;6.60;5.80;;;;;;;;;;5035793;28;20183;-73
2023/09/10 15:51:41;;;;;;;8.53;5.70;;;;;;;;;;5035941;28;20195;-74
2023/09/10 15:54:11;;;;;;;6.93;5.63;;;;;;;;;;5035530;28;20285;-71
2023/09/10 15:56:38;;;;;;;8.63;6.07;;;;;;;;;;5035707;28;20202;-70
2023/09/10 16:07:05;;;;;;;6.93;6.27;;;;;;;;;;5053508;28;20185;-69
2023/09/10 16:09:33;;;;;;;8.10;6.20;;;;;;;;;;5036109;28;20683;-70
2023/09/10 16:12:01;;;;;;;8.00;5.87;;;;;;;;;;5036040;28;20577;-70
2023/09/10 16:14:29;;;;;;;8.93;6.27;;;;;;;;;;5051828;28;20634;-69
2023/09/10 16:20:57;;;;;;;8.63;6.03;;;;;;;;;;5053081;28;20298;-69
2023/09/10 16:27:23;;;;;;;7.77;6.20;;;;;;;;;;5053788;28;20194;-71
2023/09/10 16:29:50;;;;;;;13.40;6.37;;;;;;;;;;5035289;28;20237;-70
2023/09/10 16:36:11;;;;;;;12.63;6.67;;;;;;;;;;5076614;28;20173;-70
2023/09/10 16:38:39;;;;;;;8.43;6.33;;;;;;;;;;5059225;28;20194;-72
2023/09/10 16:41:06;;;;;;;11.17;7.00;;;;;;;;;;5076540;28;20223;-73
2023/09/10 16:43:34;;;;;;;19.07;6.40;;;;;;;;;;5076300;28;20206;-70
2023/09/10 16:46:03;;;;;;;25.53;8.53;;;;;;;;;;5043054;28;20217;-71
2023/09/10 16:48:33;;;;;;;9.67;7.60;;;;;;;;;;5038550;28;20178;-69
2023/09/10 16:51:00;;;;;;;12.90;7.57;;;;;;;;;;5039227;28;20205;-70
2023/09/10 16:53:45;;;;;;;15.97;8.33;;;;;;;;;;5028026;28;20150;-72
2023/09/10 16:56:14;;;;;;;13.40;8.40;;;;;;;;;;5006437;28;20190;-73
2023/09/10 17:02:41;;;;;;;11.60;8.20;;;;;;;;;;5056558;28;20603;-70
2023/09/10 17:05:10;;;;;;;17.93;8.37;;;;;;;;;;5038547;28;20277;-71
2023/09/10 17:07:40;;;;;;;12.33;7.97;;;;;;;;;;5039519;28;20270;-71
2023/09/10 17:10:08;;;;;;;9.17;8.17;;;;;;;;;;5022597;28;20629;-71
2023/09/10 17:12:37;;;;;;;12.47;8.20;;;;;;;;;;5006889;28;20246;-70
2023/09/10 17:15:22;;;;;;;12.00;7.80;;;;;;;;;;5027296;28;20198;-71
2023/09/10 17:17:53;;;;;;;32.73;9.23;;;;;;;;;;5055200;28;20196;-71
2023/09/10 17:20:22;;;;;;;24.67;9.07;;;;;;;;;;5022048;28;20635;-71
2023/09/10 17:22:50;;;;;;;31.77;9.37;;;;;;;;;;5037882;28;20221;-71
2023/09/10 17:29:11;;;;;;;22.50;9.13;;;;;;;;;;5075953;28;20152;-72
2023/09/10 17:31:40;;;;;;;57.83;11.93;;;;;;;;;;5058181;28;20384;-72
2023/09/10 17:34:07;;;;;;;26.50;9.57;;;;;;;;;;5041415;28;20536;-71
2023/09/10 17:36:34;;;;;;;33.30;10.40;;;;;;;;;;5025411;28;20286;-71
2023/09/10 17:43:02;;;;;;;26.03;9.30;;;;;;;;;;5075181;28;20704;-72
2023/09/10 17:45:31;;;;;;;32.30;9.97;;;;;;;;;;5074797;28;20186;-72
2023/09/10 17:47:59;;;;;;;16.07;9.13;;;;;;;;;;5075150;28;20235;-71
2023/09/10 17:54:27;;;;;;;19.83;9.43;;;;;;;;;;5075235;28;20200;-72
2023/09/10 17:56:54;;;;;;;17.37;8.73;;;;;;;;;;5075521;28;20189;-72
2023/09/10 18:03:16;;;;;;;16.57;9.17;;;;;;;;;;5075022;28;20279;-71
2023/09/10 18:05:43;;;;;;;15.80;9.53;;;;;;;;;;5057296;28;20525;-72
2023/09/10 18:08:11;;;;;;;19.80;10.77;;;;;;;;;;5057021;28;20194;-72
2023/09/10 18:10:38;;;;;;;16.20;10.03;;;;;;;;;;5057438;28;20181;-73
2023/09/10 18:13:05;;;;;;;16.17;8.93;;;;;;;;;;5039543;28;20245;-72
2023/09/10 18:19:33;;;;;;;18.03;9.50;;;;;;;;;;5074856;28;20141;-73
2023/09/10 18:22:00;;;;;;;15.60;9.83;;;;;;;;;;5074497;28;20297;-71
2023/09/10 18:24:27;;;;;;;23.33;10.07;;;;;;;;;;5040433;28;20181;-71
2023/09/10 18:26:54;;;;;;;19.73;10.10;;;;;;;;;;5074969;28;20216;-71
2023/09/10 18:33:21;;;;;;;12.40;8.97;;;;;;;;;;5074325;28;20162;-72
2023/09/10 18:35:49;;;;;;;17.63;9.70;;;;;;;;;;5040004;28;20193;-72
2023/09/10 18:38:16;;;;;;;15.50;9.97;;;;;;;;;;5039674;28;20204;-71
2023/09/10 18:44:44;;;;;;;16.87;10.20;;;;;;;;;;5074110;28;20173;-70
2023/09/10 18:47:13;;;;;;;15.30;10.67;;;;;;;;;;5074963;28;20178;-71
2023/09/10 18:53:41;;;;;;;16.17;11.30;;;;;;;;;;5095524;28;20202;-71
2023/09/10 18:56:09;;;;;;;19.30;11.87;;;;;;;;;;5092936;28;20579;-71
2023/09/10 18:58:41;;;;;;;24.10;13.20;;;;;;;;;;5072992;28;20228;-68
2023/09/10 19:01:08;;;;;;;20.03;12.43;;;;;;;;;;5053115;28;20197;-71
2023/09/10 19:03:42;;;;;;;20.53;13.47;;;;;;;;;;5055629;28;20226;-71
2023/09/10 19:06:15;;;;;;;25.20;13.10;;;;;;;;;;5056540;28;20193;-71
2023/09/10 19:08:52;;;;;;;25.27;13.67;;;;;;;;;;5042104;28;20259;-69
2023/09/10 19:11:24;;;;;;;23.30;12.17;;;;;;;;;;5074047;28;20609;-70
2023/09/10 19:13:52;;;;;;;28.80;13.83;;;;;;;;;;5056485;28;20212;-70
2023/09/10 19:16:49;;;;;;;26.43;13.77;;;;;;;;;;5039412;28;20188;-71
2023/09/10 19:19:34;;;;;;;28.90;16.17;;;;;;;;;;5072227;28;20158;-72
2023/09/10 19:22:02;;;;;;;26.97;15.10;;;;;;;;;;5050479;28;20210;-71
2023/09/10 19:28:29;;;;;;;24.47;15.07;;;;;;;;;;5054003;28;20149;-71
2023/09/10 19:30:58;;;;;;;19.90;14.90;;;;;;;;;;5037206;28;20202;-70
2023/09/10 19:33:27;;;;;;;26.97;17.53;;;;;;;;;;5019798;28;20634;-70
2023/09/10 19:47:01;;;;;;;25.53;17.47;;;;;;;;;;5053495;28;20173;-71
2023/09/10 19:49:28;;;;;;;30.83;19.73;;;;;;;;;;5044371;28;20221;-71
2023/09/10 19:52:00;;;;;;;32.13;20.23;;;;;;;;;;5021612;28;20197;-68
2023/09/10 19:54:30;;;;;;;31.50;19.23;;;;;;;;;;5023592;28;20204;-69
2023/09/10 19:57:03;;;;;;;31.67;20.57;;;;;;;;;;5019691;28;20270;-69
2023/09/10 20:03:31;;;;;;;30.90;17.77;;;;;;;;;;5051013;28;20735;-70
2023/09/10 20:05:58;;;;;;;25.90;18.17;;;;;;;;;;5035832;28;20193;-70
2023/09/10 20:12:20;;;;;;;26.93;16.97;;;;;;;;;;5068432;28;20182;-72
2023/09/10 20:18:16;;;;;;;30.77;19.70;;;;;;;;;;5047557;28;20198;-73
2023/09/10 20:20:43;;;;;;;29.47;19.27;;;;;;;;;;5075153;28;20178;-72
2023/09/10 20:27:10;;;;;;;27.03;18.40;;;;;;;;;;5097479;28;20231;-72
2023/09/10 20:29:38;;;;;;;25.77;18.97;;;;;;;;;;5079276;28;20186;-71
2023/09/10 20:32:05;;;;;;;35.00;20.83;;;;;;;;;;5046308;28;20197;-71
2023/09/10 20:34:32;;;;;;;27.27;18.63;;;;;;;;;;5097195;28;20178;-72
2023/09/10 20:41:00;;;;;;;24.33;18.03;;;;;;;;;;5096880;28;20148;-71
2023/09/10 20:43:27;;;;;;;31.07;18.13;;;;;;;;;;5078648;28;20198;-71
2023/09/10 20:49:48;;;;;;;31.50;17.17;;;;;;;;;;5096809;28;20157;-72
2023/09/10 20:52:15;;;;;;;23.90;17.03;;;;;;;;;;5096941;28;20671;-72
2023/09/10 20:54:41;;;;;;;25.67;17.43;;;;;;;;;;5078709;28;20226;-72
2023/09/10 20:57:09;;;;;;;21.30;15.70;;;;;;;;;;5096552;28;20185;-72
2023/09/10 20:59:35;;;;;;;24.33;14.87;;;;;;;;;;5096510;28;20190;-72